sensor_id;sensor_type;location;lat;lon;timestamp;temperature;humidity
46676;DHT22;32412;51.478;5.694;2022-08-14T00:02:25;21.50;93.40
46676;DHT22;32412;51.478;5.694;2022-08-14T00:04:51;21.50;93.70
46676;DHT22;32412;51.478;5.694;2022-08-14T00:07:17;21.40;93.90
46676;DHT22;32412;51.478;5.694;2022-08-14T00:09:43;21.40;94.00
46676;DHT22;32412;51.478;5.694;2022-08-14T00:12:09;21.30;94.20
46676;DHT22;32412;51.478;5.694;2022-08-14T00:14:36;21.30;94.40
46676;DHT22;32412;51.478;5.694;2022-08-14T00:17:03;21.20;94.60
46676;DHT22;32412;51.478;5.694;2022-08-14T00:19:32;21.20;94.80
46676;DHT22;32412;51.478;5.694;2022-08-14T00:22:00;21.20;95.00
46676;DHT22;32412;51.478;5.694;2022-08-14T00:24:26;21.20;95.10
46676;DHT22;32412;51.478;5.694;2022-08-14T00:26:52;21.20;95.20
46676;DHT22;32412;51.478;5.694;2022-08-14T00:29:20;21.20;95.40
46676;DHT22;32412;51.478;5.694;2022-08-14T00:31:48;21.10;95.60
46676;DHT22;32412;51.478;5.694;2022-08-14T00:34:14;21.10;95.70
46676;DHT22;32412;51.478;5.694;2022-08-14T00:36:43;21.00;96.00
46676;DHT22;32412;51.478;5.694;2022-08-14T00:39:13;21.00;96.30
46676;DHT22;32412;51.478;5.694;2022-08-14T00:41:39;20.90;96.60
46676;DHT22;32412;51.478;5.694;2022-08-14T00:44:09;20.90;96.60
46676;DHT22;32412;51.478;5.694;2022-08-14T00:46:36;20.90;96.90
46676;DHT22;32412;51.478;5.694;2022-08-14T00:49:02;20.90;96.90
46676;DHT22;32412;51.478;5.694;2022-08-14T00:51:27;20.90;96.90
46676;DHT22;32412;51.478;5.694;2022-08-14T00:54:00;20.90;97.00
46676;DHT22;32412;51.478;5.694;2022-08-14T00:56:27;20.90;97.10
46676;DHT22;32412;51.478;5.694;2022-08-14T00:58:56;20.80;97.10
46676;DHT22;32412;51.478;5.694;2022-08-14T01:01:27;20.80;97.30
46676;DHT22;32412;51.478;5.694;2022-08-14T01:04:00;20.70;97.40
46676;DHT22;32412;51.478;5.694;2022-08-14T01:06:28;20.70;97.40
46676;DHT22;32412;51.478;5.694;2022-08-14T01:09:00;20.70;97.50
46676;DHT22;32412;51.478;5.694;2022-08-14T01:11:27;20.70;97.60
46676;DHT22;32412;51.478;5.694;2022-08-14T01:13:53;20.70;97.80
46676;DHT22;32412;51.478;5.694;2022-08-14T01:16:25;20.70;97.80
46676;DHT22;32412;51.478;5.694;2022-08-14T01:18:52;20.60;97.80
46676;DHT22;32412;51.478;5.694;2022-08-14T01:21:38;20.60;97.60
46676;DHT22;32412;51.478;5.694;2022-08-14T01:24:06;20.70;97.30
46676;DHT22;32412;51.478;5.694;2022-08-14T01:26:38;20.80;97.10
46676;DHT22;32412;51.478;5.694;2022-08-14T01:29:04;20.70;96.90
46676;DHT22;32412;51.478;5.694;2022-08-14T01:31:35;20.80;96.80
46676;DHT22;32412;51.478;5.694;2022-08-14T01:34:21;20.80;96.70
46676;DHT22;32412;51.478;5.694;2022-08-14T01:36:50;20.80;96.80
46676;DHT22;32412;51.478;5.694;2022-08-14T01:39:18;20.80;96.90
46676;DHT22;32412;51.478;5.694;2022-08-14T01:41:47;20.70;96.90
46676;DHT22;32412;51.478;5.694;2022-08-14T01:44:21;20.80;96.70
46676;DHT22;32412;51.478;5.694;2022-08-14T01:46:48;20.70;97.10
46676;DHT22;32412;51.478;5.694;2022-08-14T01:49:19;20.70;97.10
46676;DHT22;32412;51.478;5.694;2022-08-14T01:51:45;20.60;97.10
46676;DHT22;32412;51.478;5.694;2022-08-14T01:54:14;20.60;97.30
46676;DHT22;32412;51.478;5.694;2022-08-14T01:56:42;20.60;97.20
46676;DHT22;32412;51.478;5.694;2022-08-14T02:01:51;20.60;97.50
46676;DHT22;32412;51.478;5.694;2022-08-14T02:04:21;20.50;97.60
46676;DHT22;32412;51.478;5.694;2022-08-14T02:06:48;20.50;97.70
46676;DHT22;32412;51.478;5.694;2022-08-14T02:09:16;20.50;97.80
46676;DHT22;32412;51.478;5.694;2022-08-14T02:11:42;20.50;97.80
46676;DHT22;32412;51.478;5.694;2022-08-14T02:14:10;20.40;98.00
46676;DHT22;32412;51.478;5.694;2022-08-14T02:16:41;20.40;98.10
46676;DHT22;32412;51.478;5.694;2022-08-14T02:19:21;20.30;98.40
46676;DHT22;32412;51.478;5.694;2022-08-14T02:21:50;20.20;98.90
46676;DHT22;32412;51.478;5.694;2022-08-14T02:24:20;20.10;99.10
46676;DHT22;32412;51.478;5.694;2022-08-14T02:26:49;20.00;99.50
46676;DHT22;32412;51.478;5.694;2022-08-14T02:29:18;19.90;99.90
46676;DHT22;32412;51.478;5.694;2022-08-14T02:31:48;19.90;99.90
46676;DHT22;32412;51.478;5.694;2022-08-14T02:34:20;19.90;99.90
46676;DHT22;32412;51.478;5.694;2022-08-14T02:36:49;19.80;99.90
46676;DHT22;32412;51.478;5.694;2022-08-14T02:39:16;19.70;99.90
46676;DHT22;32412;51.478;5.694;2022-08-14T02:41:42;19.60;99.90
46676;DHT22;32412;51.478;5.694;2022-08-14T02:44:09;19.50;99.90
46676;DHT22;32412;51.478;5.694;2022-08-14T02:46:37;19.50;99.90
46676;DHT22;32412;51.478;5.694;2022-08-14T02:49:03;19.40;99.90
46676;DHT22;32412;51.478;5.694;2022-08-14T02:51:34;19.30;99.90
46676;DHT22;32412;51.478;5.694;2022-08-14T02:54:01;19.20;99.90
46676;DHT22;32412;51.478;5.694;2022-08-14T02:56:28;19.20;99.90
46676;DHT22;32412;51.478;5.694;2022-08-14T02:58:55;19.10;99.90
46676;DHT22;32412;51.478;5.694;2022-08-14T03:01:23;19.10;99.90
46676;DHT22;32412;51.478;5.694;2022-08-14T03:03:49;19.10;99.90
46676;DHT22;32412;51.478;5.694;2022-08-14T03:06:16;19.00;99.90
46676;DHT22;32412;51.478;5.694;2022-08-14T03:08:42;19.00;99.90
46676;DHT22;32412;51.478;5.694;2022-08-14T03:11:10;18.90;99.90
46676;DHT22;32412;51.478;5.694;2022-08-14T03:13:41;18.80;99.90
46676;DHT22;32412;51.478;5.694;2022-08-14T03:16:14;18.80;99.90
46676;DHT22;32412;51.478;5.694;2022-08-14T03:18:42;18.70;99.90
46676;DHT22;32412;51.478;5.694;2022-08-14T03:21:11;18.70;99.90
46676;DHT22;32412;51.478;5.694;2022-08-14T03:23:39;18.70;99.90
46676;DHT22;32412;51.478;5.694;2022-08-14T03:26:16;18.70;99.90
46676;DHT22;32412;51.478;5.694;2022-08-14T03:28:47;18.70;99.90
46676;DHT22;32412;51.478;5.694;2022-08-14T03:31:14;18.60;99.90
46676;DHT22;32412;51.478;5.694;2022-08-14T03:33:41;18.60;99.90
46676;DHT22;32412;51.478;5.694;2022-08-14T03:36:12;18.60;99.90
46676;DHT22;32412;51.478;5.694;2022-08-14T03:38:39;18.60;99.90
46676;DHT22;32412;51.478;5.694;2022-08-14T03:41:08;18.70;99.90
46676;DHT22;32412;51.478;5.694;2022-08-14T03:43:39;18.70;99.90
46676;DHT22;32412;51.478;5.694;2022-08-14T03:46:05;18.80;99.90
46676;DHT22;32412;51.478;5.694;2022-08-14T03:48:31;18.70;99.90
46676;DHT22;32412;51.478;5.694;2022-08-14T03:50:57;18.70;99.90
46676;DHT22;32412;51.478;5.694;2022-08-14T03:53:24;18.70;99.90
46676;DHT22;32412;51.478;5.694;2022-08-14T03:55:49;18.60;99.90
46676;DHT22;32412;51.478;5.694;2022-08-14T03:58:15;18.60;99.90
46676;DHT22;32412;51.478;5.694;2022-08-14T04:00:41;18.60;99.90
46676;DHT22;32412;51.478;5.694;2022-08-14T04:03:11;18.60;99.90
46676;DHT22;32412;51.478;5.694;2022-08-14T04:05:36;18.60;99.90
46676;DHT22;32412;51.478;5.694;2022-08-14T04:08:04;18.60;99.90
46676;DHT22;32412;51.478;5.694;2022-08-14T04:10:32;18.60;99.90
46676;DHT22;32412;51.478;5.694;2022-08-14T04:13:02;18.60;99.90
46676;DHT22;32412;51.478;5.694;2022-08-14T04:15:28;18.70;99.90
46676;DHT22;32412;51.478;5.694;2022-08-14T04:17:54;18.60;99.90
46676;DHT22;32412;51.478;5.694;2022-08-14T04:20:20;18.60;99.90
46676;DHT22;32412;51.478;5.694;2022-08-14T04:22:46;18.50;99.90
46676;DHT22;32412;51.478;5.694;2022-08-14T04:25:14;18.40;99.90
46676;DHT22;32412;51.478;5.694;2022-08-14T04:27:40;18.50;99.90
46676;DHT22;32412;51.478;5.694;2022-08-14T04:30:06;18.50;99.90
46676;DHT22;32412;51.478;5.694;2022-08-14T04:32:32;18.50;99.90
46676;DHT22;32412;51.478;5.694;2022-08-14T04:35:02;18.40;99.90
46676;DHT22;32412;51.478;5.694;2022-08-14T04:37:28;18.40;99.90
46676;DHT22;32412;51.478;5.694;2022-08-14T04:40:13;18.40;99.90
46676;DHT22;32412;51.478;5.694;2022-08-14T04:42:58;18.40;99.90
46676;DHT22;32412;51.478;5.694;2022-08-14T04:45:42;18.40;99.90
46676;DHT22;32412;51.478;5.694;2022-08-14T04:48:10;18.40;99.90
46676;DHT22;32412;51.478;5.694;2022-08-14T04:50:51;18.40;99.90
46676;DHT22;32412;51.478;5.694;2022-08-14T04:53:21;18.40;99.90
46676;DHT22;32412;51.478;5.694;2022-08-14T04:55:48;18.40;99.90
46676;DHT22;32412;51.478;5.694;2022-08-14T04:58:19;18.40;99.90
46676;DHT22;32412;51.478;5.694;2022-08-14T05:00:47;18.40;99.90
46676;DHT22;32412;51.478;5.694;2022-08-14T05:03:22;18.40;99.90
46676;DHT22;32412;51.478;5.694;2022-08-14T05:05:49;18.50;99.90
46676;DHT22;32412;51.478;5.694;2022-08-14T05:08:15;18.50;99.90
46676;DHT22;32412;51.478;5.694;2022-08-14T05:10:47;18.60;99.90
46676;DHT22;32412;51.478;5.694;2022-08-14T05:13:20;18.60;99.90
46676;DHT22;32412;51.478;5.694;2022-08-14T05:15:46;18.70;99.90
46676;DHT22;32412;51.478;5.694;2022-08-14T05:18:15;18.80;99.90
46676;DHT22;32412;51.478;5.694;2022-08-14T05:20:43;18.80;99.90
46676;DHT22;32412;51.478;5.694;2022-08-14T05:23:11;18.80;99.90
46676;DHT22;32412;51.478;5.694;2022-08-14T05:25:38;19.00;99.90
46676;DHT22;32412;51.478;5.694;2022-08-14T05:28:13;19.10;99.90
46676;DHT22;32412;51.478;5.694;2022-08-14T05:30:51;19.20;99.90
46676;DHT22;32412;51.478;5.694;2022-08-14T05:33:19;19.30;99.90
46676;DHT22;32412;51.478;5.694;2022-08-14T05:35:46;19.40;99.90
46676;DHT22;32412;51.478;5.694;2022-08-14T05:38:15;19.50;99.90
46676;DHT22;32412;51.478;5.694;2022-08-14T05:40:46;19.60;99.90
46676;DHT22;32412;51.478;5.694;2022-08-14T05:43:12;19.60;99.90
46676;DHT22;32412;51.478;5.694;2022-08-14T05:45:38;19.70;99.90
46676;DHT22;32412;51.478;5.694;2022-08-14T05:48:05;19.80;99.90
46676;DHT22;32412;51.478;5.694;2022-08-14T05:50:32;19.90;99.90
46676;DHT22;32412;51.478;5.694;2022-08-14T05:52:58;20.00;99.90
46676;DHT22;32412;51.478;5.694;2022-08-14T05:55:24;20.10;99.90
46676;DHT22;32412;51.478;5.694;2022-08-14T05:57:54;20.30;99.90
46676;DHT22;32412;51.478;5.694;2022-08-14T06:00:23;20.30;99.90
46676;DHT22;32412;51.478;5.694;2022-08-14T06:02:49;20.40;99.90
46676;DHT22;32412;51.478;5.694;2022-08-14T06:05:15;20.50;99.90
46676;DHT22;32412;51.478;5.694;2022-08-14T06:07:41;20.60;99.90
46676;DHT22;32412;51.478;5.694;2022-08-14T06:10:08;20.70;99.90
46676;DHT22;32412;51.478;5.694;2022-08-14T06:12:35;20.80;99.90
46676;DHT22;32412;51.478;5.694;2022-08-14T06:15:01;20.90;99.90
46676;DHT22;32412;51.478;5.694;2022-08-14T06:17:26;21.10;99.90
46676;DHT22;32412;51.478;5.694;2022-08-14T06:19:52;21.10;99.90
46676;DHT22;32412;51.478;5.694;2022-08-14T06:22:18;21.20;99.90
46676;DHT22;32412;51.478;5.694;2022-08-14T06:24:44;21.40;99.90
46676;DHT22;32412;51.478;5.694;2022-08-14T06:27:10;21.50;99.90
46676;DHT22;32412;51.478;5.694;2022-08-14T06:29:36;21.60;99.90
46676;DHT22;32412;51.478;5.694;2022-08-14T06:32:03;21.70;99.90
46676;DHT22;32412;51.478;5.694;2022-08-14T06:34:29;21.80;99.90
46676;DHT22;32412;51.478;5.694;2022-08-14T06:36:55;21.90;99.90
46676;DHT22;32412;51.478;5.694;2022-08-14T06:39:22;22.00;99.90
46676;DHT22;32412;51.478;5.694;2022-08-14T06:41:48;22.10;99.90
46676;DHT22;32412;51.478;5.694;2022-08-14T06:44:13;22.20;99.90
46676;DHT22;32412;51.478;5.694;2022-08-14T06:46:39;22.30;99.90
46676;DHT22;32412;51.478;5.694;2022-08-14T06:49:05;22.40;99.90
46676;DHT22;32412;51.478;5.694;2022-08-14T06:51:31;22.60;99.90
46676;DHT22;32412;51.478;5.694;2022-08-14T06:53:56;22.60;99.90
46676;DHT22;32412;51.478;5.694;2022-08-14T06:56:22;22.70;99.90
46676;DHT22;32412;51.478;5.694;2022-08-14T06:58:48;22.90;99.90
46676;DHT22;32412;51.478;5.694;2022-08-14T07:01:14;23.00;99.90
46676;DHT22;32412;51.478;5.694;2022-08-14T07:03:58;23.00;99.90
46676;DHT22;32412;51.478;5.694;2022-08-14T07:06:42;23.20;99.90
46676;DHT22;32412;51.478;5.694;2022-08-14T07:09:11;23.20;99.90
46676;DHT22;32412;51.478;5.694;2022-08-14T07:11:37;23.40;99.90
46676;DHT22;32412;51.478;5.694;2022-08-14T07:14:03;23.40;99.90
46676;DHT22;32412;51.478;5.694;2022-08-14T07:16:29;23.60;99.90
46676;DHT22;32412;51.478;5.694;2022-08-14T07:18:55;23.70;99.90
46676;DHT22;32412;51.478;5.694;2022-08-14T07:21:20;23.90;99.90
46676;DHT22;32412;51.478;5.694;2022-08-14T07:23:46;24.00;99.90
46676;DHT22;32412;51.478;5.694;2022-08-14T07:26:12;24.20;99.90
46676;DHT22;32412;51.478;5.694;2022-08-14T07:28:39;24.40;99.90
46676;DHT22;32412;51.478;5.694;2022-08-14T07:31:10;24.50;99.90
46676;DHT22;32412;51.478;5.694;2022-08-14T07:33:40;24.50;99.90
46676;DHT22;32412;51.478;5.694;2022-08-14T07:36:09;24.70;99.90
46676;DHT22;32412;51.478;5.694;2022-08-14T07:38:35;24.80;99.80
46676;DHT22;32412;51.478;5.694;2022-08-14T07:41:02;25.00;99.50
46676;DHT22;32412;51.478;5.694;2022-08-14T07:43:29;25.20;99.20
46676;DHT22;32412;51.478;5.694;2022-08-14T07:45:55;25.30;98.50
46676;DHT22;32412;51.478;5.694;2022-08-14T07:48:21;25.40;98.20
46676;DHT22;32412;51.478;5.694;2022-08-14T07:50:46;25.50;98.30
46676;DHT22;32412;51.478;5.694;2022-08-14T07:53:15;25.70;98.10
46676;DHT22;32412;51.478;5.694;2022-08-14T07:55:41;25.80;97.50
46676;DHT22;32412;51.478;5.694;2022-08-14T07:58:07;25.80;97.50
46676;DHT22;32412;51.478;5.694;2022-08-14T08:00:33;26.00;97.10
46676;DHT22;32412;51.478;5.694;2022-08-14T08:02:59;26.20;96.90
46676;DHT22;32412;51.478;5.694;2022-08-14T08:05:25;26.30;97.00
46676;DHT22;32412;51.478;5.694;2022-08-14T08:07:53;26.30;96.70
46676;DHT22;32412;51.478;5.694;2022-08-14T08:10:21;26.50;96.70
46676;DHT22;32412;51.478;5.694;2022-08-14T08:13:10;26.60;95.90
46676;DHT22;32412;51.478;5.694;2022-08-14T08:15:42;26.70;95.90
46676;DHT22;32412;51.478;5.694;2022-08-14T08:18:10;26.90;95.80
46676;DHT22;32412;51.478;5.694;2022-08-14T08:20:40;27.00;96.10
46676;DHT22;32412;51.478;5.694;2022-08-14T08:23:07;27.10;95.50
46676;DHT22;32412;51.478;5.694;2022-08-14T08:25:37;27.30;95.30
46676;DHT22;32412;51.478;5.694;2022-08-14T08:28:17;27.50;95.10
46676;DHT22;32412;51.478;5.694;2022-08-14T08:30:57;27.70;94.40
46676;DHT22;32412;51.478;5.694;2022-08-14T08:33:25;27.80;94.50
46676;DHT22;32412;51.478;5.694;2022-08-14T08:35:53;27.80;94.50
46676;DHT22;32412;51.478;5.694;2022-08-14T08:38:23;27.80;94.70
46676;DHT22;32412;51.478;5.694;2022-08-14T08:40:50;28.00;94.80
46676;DHT22;32412;51.478;5.694;2022-08-14T08:48:20;28.10;94.10
46676;DHT22;32412;51.478;5.694;2022-08-14T08:50:46;28.20;94.10
46676;DHT22;32412;51.478;5.694;2022-08-14T08:53:12;28.30;93.30
46676;DHT22;32412;51.478;5.694;2022-08-14T08:55:40;28.20;93.30
46676;DHT22;32412;51.478;5.694;2022-08-14T08:58:09;28.30;93.40
46676;DHT22;32412;51.478;5.694;2022-08-14T09:00:37;28.50;92.70
46676;DHT22;32412;51.478;5.694;2022-08-14T09:03:12;28.50;92.70
46676;DHT22;32412;51.478;5.694;2022-08-14T09:06:00;28.70;92.90
46676;DHT22;32412;51.478;5.694;2022-08-14T09:08:29;28.80;92.90
46676;DHT22;32412;51.478;5.694;2022-08-14T09:10:56;28.90;92.90
46676;DHT22;32412;51.478;5.694;2022-08-14T09:13:24;29.10;93.20
46676;DHT22;32412;51.478;5.694;2022-08-14T09:15:52;29.40;92.30
46676;DHT22;32412;51.478;5.694;2022-08-14T09:18:20;29.60;92.40
46676;DHT22;32412;51.478;5.694;2022-08-14T09:20:49;29.70;92.10
46676;DHT22;32412;51.478;5.694;2022-08-14T09:23:16;29.90;92.10
46676;DHT22;32412;51.478;5.694;2022-08-14T09:25:43;29.90;92.00
46676;DHT22;32412;51.478;5.694;2022-08-14T09:28:11;30.20;91.50
46676;DHT22;32412;51.478;5.694;2022-08-14T09:30:40;30.50;91.30
46676;DHT22;32412;51.478;5.694;2022-08-14T09:36:23;30.50;91.20
46676;DHT22;32412;51.478;5.694;2022-08-14T09:39:22;30.60;91.10
46676;DHT22;32412;51.478;5.694;2022-08-14T09:47:03;31.50;89.20
46676;DHT22;32412;51.478;5.694;2022-08-14T09:49:35;32.10;88.60
46676;DHT22;32412;51.478;5.694;2022-08-14T09:54:41;33.20;86.50
46676;DHT22;32412;51.478;5.694;2022-08-14T09:57:08;33.70;85.60
46676;DHT22;32412;51.478;5.694;2022-08-14T09:59:47;33.80;84.30
46676;DHT22;32412;51.478;5.694;2022-08-14T10:02:27;34.20;83.20
46676;DHT22;32412;51.478;5.694;2022-08-14T10:05:08;34.60;82.90
46676;DHT22;32412;51.478;5.694;2022-08-14T10:07:48;34.90;82.50
46676;DHT22;32412;51.478;5.694;2022-08-14T10:10:36;34.90;81.90
46676;DHT22;32412;51.478;5.694;2022-08-14T10:13:07;35.40;82.70
46676;DHT22;32412;51.478;5.694;2022-08-14T10:15:45;35.90;83.10
46676;DHT22;32412;51.478;5.694;2022-08-14T10:18:13;36.10;83.50
46676;DHT22;32412;51.478;5.694;2022-08-14T10:20:42;36.20;82.40
46676;DHT22;32412;51.478;5.694;2022-08-14T10:23:20;35.30;82.90
46676;DHT22;32412;51.478;5.694;2022-08-14T10:25:48;35.80;82.50
46676;DHT22;32412;51.478;5.694;2022-08-14T10:28:20;36.10;82.50
46676;DHT22;32412;51.478;5.694;2022-08-14T10:30:47;35.30;81.60
46676;DHT22;32412;51.478;5.694;2022-08-14T10:33:28;34.80;82.80
46676;DHT22;32412;51.478;5.694;2022-08-14T10:35:56;35.30;82.40
46676;DHT22;32412;51.478;5.694;2022-08-14T10:40:53;35.80;81.00
46676;DHT22;32412;51.478;5.694;2022-08-14T10:43:21;36.00;80.40
46676;DHT22;32412;51.478;5.694;2022-08-14T10:46:13;35.90;79.80
46676;DHT22;32412;51.478;5.694;2022-08-14T10:48:40;35.70;80.00
46676;DHT22;32412;51.478;5.694;2022-08-14T10:51:06;35.90;79.80
46676;DHT22;32412;51.478;5.694;2022-08-14T10:53:33;36.10;79.60
46676;DHT22;32412;51.478;5.694;2022-08-14T10:56:03;36.40;79.30
46676;DHT22;32412;51.478;5.694;2022-08-14T10:58:32;36.20;79.10
46676;DHT22;32412;51.478;5.694;2022-08-14T11:00:59;36.00;79.40
46676;DHT22;32412;51.478;5.694;2022-08-14T11:03:37;35.30;79.60
46676;DHT22;32412;51.478;5.694;2022-08-14T11:06:14;36.00;79.40
46676;DHT22;32412;51.478;5.694;2022-08-14T11:08:44;36.40;78.60
46676;DHT22;32412;51.478;5.694;2022-08-14T11:11:10;36.60;76.50
46676;DHT22;32412;51.478;5.694;2022-08-14T11:13:40;36.90;77.00
46676;DHT22;32412;51.478;5.694;2022-08-14T11:16:09;37.30;77.20
46676;DHT22;32412;51.478;5.694;2022-08-14T11:18:35;37.60;75.70
46676;DHT22;32412;51.478;5.694;2022-08-14T11:21:02;38.20;76.10
46676;DHT22;32412;51.478;5.694;2022-08-14T11:23:34;39.20;74.80
46676;DHT22;32412;51.478;5.694;2022-08-14T11:26:01;39.10;74.70
46676;DHT22;32412;51.478;5.694;2022-08-14T11:28:32;39.70;74.00
46676;DHT22;32412;51.478;5.694;2022-08-14T11:30:59;39.80;73.80
46676;DHT22;32412;51.478;5.694;2022-08-14T11:33:27;39.50;73.60
46676;DHT22;32412;51.478;5.694;2022-08-14T11:36:02;39.30;72.20
46676;DHT22;32412;51.478;5.694;2022-08-14T11:38:43;37.50;73.00
46676;DHT22;32412;51.478;5.694;2022-08-14T11:41:11;36.00;74.30
46676;DHT22;32412;51.478;5.694;2022-08-14T11:43:42;35.70;74.90
46676;DHT22;32412;51.478;5.694;2022-08-14T11:46:08;37.20;73.60
46676;DHT22;32412;51.478;5.694;2022-08-14T11:48:52;38.70;72.80
46676;DHT22;32412;51.478;5.694;2022-08-14T11:51:23;39.40;71.70
46676;DHT22;32412;51.478;5.694;2022-08-14T11:53:53;40.30;70.80
46676;DHT22;32412;51.478;5.694;2022-08-14T11:56:19;40.70;69.90
46676;DHT22;32412;51.478;5.694;2022-08-14T11:58:52;40.20;69.80
46676;DHT22;32412;51.478;5.694;2022-08-14T12:01:28;40.40;69.60
46676;DHT22;32412;51.478;5.694;2022-08-14T12:04:09;38.70;69.30
46676;DHT22;32412;51.478;5.694;2022-08-14T12:06:50;37.20;69.90
46676;DHT22;32412;51.478;5.694;2022-08-14T12:09:34;35.90;71.80
46676;DHT22;32412;51.478;5.694;2022-08-14T12:12:16;35.30;72.60
46676;DHT22;32412;51.478;5.694;2022-08-14T12:14:55;34.90;72.30
46676;DHT22;32412;51.478;5.694;2022-08-14T12:17:22;35.00;73.80
46676;DHT22;32412;51.478;5.694;2022-08-14T12:20:07;36.20;71.60
46676;DHT22;32412;51.478;5.694;2022-08-14T12:22:44;37.60;71.20
46676;DHT22;32412;51.478;5.694;2022-08-14T12:25:18;38.30;70.80
46676;DHT22;32412;51.478;5.694;2022-08-14T12:27:49;39.10;70.30
46676;DHT22;32412;51.478;5.694;2022-08-14T12:30:28;39.50;67.70
46676;DHT22;32412;51.478;5.694;2022-08-14T12:32:57;40.10;66.90
46676;DHT22;32412;51.478;5.694;2022-08-14T12:35:22;39.90;66.30
46676;DHT22;32412;51.478;5.694;2022-08-14T12:37:50;40.60;66.20
46676;DHT22;32412;51.478;5.694;2022-08-14T12:40:17;41.20;65.80
46676;DHT22;32412;51.478;5.694;2022-08-14T12:42:44;41.50;65.60
46676;DHT22;32412;51.478;5.694;2022-08-14T12:45:11;41.30;64.90
46676;DHT22;32412;51.478;5.694;2022-08-14T12:47:41;41.70;65.40
46676;DHT22;32412;51.478;5.694;2022-08-14T12:50:08;41.20;64.90
46676;DHT22;32412;51.478;5.694;2022-08-14T12:52:39;40.90;65.60
46676;DHT22;32412;51.478;5.694;2022-08-14T12:55:08;41.10;65.80
46676;DHT22;32412;51.478;5.694;2022-08-14T12:57:37;40.70;65.40
46676;DHT22;32412;51.478;5.694;2022-08-14T13:00:12;40.40;65.90
46676;DHT22;32412;51.478;5.694;2022-08-14T13:02:52;38.50;66.90
46676;DHT22;32412;51.478;5.694;2022-08-14T13:05:26;37.20;68.50
46676;DHT22;32412;51.478;5.694;2022-08-14T13:07:57;36.50;68.50
46676;DHT22;32412;51.478;5.694;2022-08-14T13:10:24;36.20;69.00
46676;DHT22;32412;51.478;5.694;2022-08-14T13:12:55;36.70;69.60
46676;DHT22;32412;51.478;5.694;2022-08-14T13:15:21;37.70;69.00
46676;DHT22;32412;51.478;5.694;2022-08-14T13:17:49;38.40;68.10
46676;DHT22;32412;51.478;5.694;2022-08-14T13:20:20;38.20;67.50
46676;DHT22;32412;51.478;5.694;2022-08-14T13:22:47;38.00;66.90
46676;DHT22;32412;51.478;5.694;2022-08-14T13:25:19;37.70;67.40
46676;DHT22;32412;51.478;5.694;2022-08-14T13:27:48;37.00;66.70
46676;DHT22;32412;51.478;5.694;2022-08-14T13:30:15;35.90;68.10
46676;DHT22;32412;51.478;5.694;2022-08-14T13:32:42;35.00;68.60
46676;DHT22;32412;51.478;5.694;2022-08-14T13:35:14;34.70;69.00
46676;DHT22;32412;51.478;5.694;2022-08-14T13:37:41;34.30;69.50
46676;DHT22;32412;51.478;5.694;2022-08-14T13:40:07;34.00;70.00
46676;DHT22;32412;51.478;5.694;2022-08-14T13:42:33;34.10;70.80
46676;DHT22;32412;51.478;5.694;2022-08-14T13:45:03;33.90;70.00
46676;DHT22;32412;51.478;5.694;2022-08-14T13:47:29;33.60;70.20
46676;DHT22;32412;51.478;5.694;2022-08-14T13:49:58;33.40;70.50
46676;DHT22;32412;51.478;5.694;2022-08-14T13:52:50;33.40;70.20
46676;DHT22;32412;51.478;5.694;2022-08-14T13:55:25;33.50;69.90
46676;DHT22;32412;51.478;5.694;2022-08-14T13:57:57;33.70;70.40
46676;DHT22;32412;51.478;5.694;2022-08-14T14:00:24;33.60;69.00
46676;DHT22;32412;51.478;5.694;2022-08-14T14:02:50;33.50;69.70
46676;DHT22;32412;51.478;5.694;2022-08-14T14:05:19;33.40;69.40
46676;DHT22;32412;51.478;5.694;2022-08-14T14:07:50;33.30;69.20
46676;DHT22;32412;51.478;5.694;2022-08-14T14:10:18;33.30;69.30
46676;DHT22;32412;51.478;5.694;2022-08-14T14:12:47;33.20;68.90
46676;DHT22;32412;51.478;5.694;2022-08-14T14:15:16;33.20;69.30
46676;DHT22;32412;51.478;5.694;2022-08-14T14:17:43;33.40;69.00
46676;DHT22;32412;51.478;5.694;2022-08-14T14:20:14;33.60;69.30
46676;DHT22;32412;51.478;5.694;2022-08-14T14:22:41;33.60;69.90
46676;DHT22;32412;51.478;5.694;2022-08-14T14:25:10;33.60;69.30
46676;DHT22;32412;51.478;5.694;2022-08-14T14:27:43;33.50;69.40
46676;DHT22;32412;51.478;5.694;2022-08-14T14:30:11;33.40;70.10
46676;DHT22;32412;51.478;5.694;2022-08-14T14:32:39;33.40;69.30
46676;DHT22;32412;51.478;5.694;2022-08-14T14:35:09;33.40;70.00
46676;DHT22;32412;51.478;5.694;2022-08-14T14:37:38;33.50;69.70
46676;DHT22;32412;51.478;5.694;2022-08-14T14:40:05;33.30;69.00
46676;DHT22;32412;51.478;5.694;2022-08-14T14:42:31;33.30;69.30
46676;DHT22;32412;51.478;5.694;2022-08-14T14:45:11;33.20;70.10
46676;DHT22;32412;51.478;5.694;2022-08-14T14:47:46;33.10;69.10
46676;DHT22;32412;51.478;5.694;2022-08-14T14:50:12;33.00;69.40
46676;DHT22;32412;51.478;5.694;2022-08-14T14:52:39;33.00;69.30
46676;DHT22;32412;51.478;5.694;2022-08-14T14:55:06;33.00;70.10
46676;DHT22;32412;51.478;5.694;2022-08-14T14:57:33;33.00;69.40
46676;DHT22;32412;51.478;5.694;2022-08-14T14:59:59;33.20;69.50
46676;DHT22;32412;51.478;5.694;2022-08-14T15:02:37;33.30;69.30
46676;DHT22;32412;51.478;5.694;2022-08-14T15:05:07;33.30;69.40
46676;DHT22;32412;51.478;5.694;2022-08-14T15:07:34;33.20;69.50
46676;DHT22;32412;51.478;5.694;2022-08-14T15:10:01;33.10;69.60
46676;DHT22;32412;51.478;5.694;2022-08-14T15:12:26;33.10;69.00
46676;DHT22;32412;51.478;5.694;2022-08-14T15:14:53;33.00;69.30
46676;DHT22;32412;51.478;5.694;2022-08-14T15:17:19;33.00;69.10
46676;DHT22;32412;51.478;5.694;2022-08-14T15:19:47;33.00;69.20
46676;DHT22;32412;51.478;5.694;2022-08-14T15:22:13;32.90;69.00
46676;DHT22;32412;51.478;5.694;2022-08-14T15:24:39;32.90;69.00
46676;DHT22;32412;51.478;5.694;2022-08-14T15:27:04;33.00;70.00
46676;DHT22;32412;51.478;5.694;2022-08-14T15:29:31;33.10;69.50
46676;DHT22;32412;51.478;5.694;2022-08-14T15:32:03;33.10;69.00
46676;DHT22;32412;51.478;5.694;2022-08-14T15:34:29;33.10;69.40
46676;DHT22;32412;51.478;5.694;2022-08-14T15:36:55;33.10;69.40
46676;DHT22;32412;51.478;5.694;2022-08-14T15:39:21;33.10;70.30
46676;DHT22;32412;51.478;5.694;2022-08-14T15:41:46;33.00;69.40
46676;DHT22;32412;51.478;5.694;2022-08-14T15:44:13;33.00;69.70
46676;DHT22;32412;51.478;5.694;2022-08-14T15:46:38;32.80;69.40
46676;DHT22;32412;51.478;5.694;2022-08-14T15:49:04;32.90;69.90
46676;DHT22;32412;51.478;5.694;2022-08-14T15:51:33;32.90;70.30
46676;DHT22;32412;51.478;5.694;2022-08-14T15:53:58;32.90;69.40
46676;DHT22;32412;51.478;5.694;2022-08-14T15:56:24;32.80;69.70
46676;DHT22;32412;51.478;5.694;2022-08-14T15:58:50;32.70;69.90
46676;DHT22;32412;51.478;5.694;2022-08-14T16:01:16;32.70;70.00
46676;DHT22;32412;51.478;5.694;2022-08-14T16:03:48;32.90;69.20
46676;DHT22;32412;51.478;5.694;2022-08-14T16:06:18;33.00;69.40